sensor_id;sensor_type;location;lat;lon;timestamp;temperature;humidity
25652;DHT22;13508;50.734;4.232;2024-01-07T00:01:49;3.20;99.90
25652;DHT22;13508;50.734;4.232;2024-01-07T00:04:52;3.20;99.90
25652;DHT22;13508;50.734;4.232;2024-01-07T00:07:56;3.20;99.90
25652;DHT22;13508;50.734;4.232;2024-01-07T00:10:59;3.40;99.90
25652;DHT22;13508;50.734;4.232;2024-01-07T00:14:03;3.30;99.90
25652;DHT22;13508;50.734;4.232;2024-01-07T00:17:06;3.20;99.90
25652;DHT22;13508;50.734;4.232;2024-01-07T00:20:10;3.20;99.90
25652;DHT22;13508;50.734;4.232;2024-01-07T00:23:13;3.20;99.90
25652;DHT22;13508;50.734;4.232;2024-01-07T00:26:19;3.10;99.90
25652;DHT22;13508;50.734;4.232;2024-01-07T00:29:23;3.20;99.90
25652;DHT22;13508;50.734;4.232;2024-01-07T00:32:26;3.10;99.90
25652;DHT22;13508;50.734;4.232;2024-01-07T00:35:30;3.00;99.90
25652;DHT22;13508;50.734;4.232;2024-01-07T00:38:33;3.20;99.90
25652;DHT22;13508;50.734;4.232;2024-01-07T00:41:37;3.20;99.90
25652;DHT22;13508;50.734;4.232;2024-01-07T00:44:40;3.20;99.90
25652;DHT22;13508;50.734;4.232;2024-01-07T00:47:44;3.20;99.90
25652;DHT22;13508;50.734;4.232;2024-01-07T00:50:47;3.10;99.90
25652;DHT22;13508;50.734;4.232;2024-01-07T00:53:51;3.20;99.90
25652;DHT22;13508;50.734;4.232;2024-01-07T00:56:54;3.30;99.90
25652;DHT22;13508;50.734;4.232;2024-01-07T00:59:59;3.40;99.90
25652;DHT22;13508;50.734;4.232;2024-01-07T01:03:02;3.30;99.90
25652;DHT22;13508;50.734;4.232;2024-01-07T01:06:06;3.40;99.90
25652;DHT22;13508;50.734;4.232;2024-01-07T01:09:12;3.40;99.90
25652;DHT22;13508;50.734;4.232;2024-01-07T01:12:15;3.30;99.90
25652;DHT22;13508;50.734;4.232;2024-01-07T01:15:18;3.40;99.90
25652;DHT22;13508;50.734;4.232;2024-01-07T01:18:22;3.40;99.90
25652;DHT22;13508;50.734;4.232;2024-01-07T01:21:26;3.70;99.90
25652;DHT22;13508;50.734;4.232;2024-01-07T01:24:29;3.70;99.90
25652;DHT22;13508;50.734;4.232;2024-01-07T01:27:32;3.70;99.90
25652;DHT22;13508;50.734;4.232;2024-01-07T01:30:36;3.70;99.90
25652;DHT22;13508;50.734;4.232;2024-01-07T01:33:39;3.70;99.90
25652;DHT22;13508;50.734;4.232;2024-01-07T01:36:43;3.70;99.90
25652;DHT22;13508;50.734;4.232;2024-01-07T01:39:46;3.90;99.90
25652;DHT22;13508;50.734;4.232;2024-01-07T01:42:50;4.10;99.90
25652;DHT22;13508;50.734;4.232;2024-01-07T01:45:55;4.10;99.90
25652;DHT22;13508;50.734;4.232;2024-01-07T01:48:59;4.20;99.90
25652;DHT22;13508;50.734;4.232;2024-01-07T01:52:02;4.30;99.90
25652;DHT22;13508;50.734;4.232;2024-01-07T01:55:05;4.20;99.90
25652;DHT22;13508;50.734;4.232;2024-01-07T01:58:15;4.10;99.90
25652;DHT22;13508;50.734;4.232;2024-01-07T02:01:22;4.20;99.90
25652;DHT22;13508;50.734;4.232;2024-01-07T02:04:26;4.30;99.90
25652;DHT22;13508;50.734;4.232;2024-01-07T02:07:32;4.40;99.90
25652;DHT22;13508;50.734;4.232;2024-01-07T02:10:36;4.40;99.90
25652;DHT22;13508;50.734;4.232;2024-01-07T02:13:44;4.30;99.90
25652;DHT22;13508;50.734;4.232;2024-01-07T02:16:48;4.50;99.90
25652;DHT22;13508;50.734;4.232;2024-01-07T02:19:51;4.40;99.90
25652;DHT22;13508;50.734;4.232;2024-01-07T02:22:58;4.40;99.90
25652;DHT22;13508;50.734;4.232;2024-01-07T02:26:02;4.40;99.90
25652;DHT22;13508;50.734;4.232;2024-01-07T02:29:10;4.50;99.90
25652;DHT22;13508;50.734;4.232;2024-01-07T02:32:13;4.50;99.90
25652;DHT22;13508;50.734;4.232;2024-01-07T02:35:18;4.50;99.90
25652;DHT22;13508;50.734;4.232;2024-01-07T02:38:22;4.30;99.90
25652;DHT22;13508;50.734;4.232;2024-01-07T02:41:25;4.20;99.90
25652;DHT22;13508;50.734;4.232;2024-01-07T02:44:29;4.30;99.90
25652;DHT22;13508;50.734;4.232;2024-01-07T02:47:35;4.40;99.90
25652;DHT22;13508;50.734;4.232;2024-01-07T02:50:38;4.50;99.90
25652;DHT22;13508;50.734;4.232;2024-01-07T02:53:41;4.30;99.90
25652;DHT22;13508;50.734;4.232;2024-01-07T02:56:45;4.30;99.90
25652;DHT22;13508;50.734;4.232;2024-01-07T02:59:48;4.40;99.90
25652;DHT22;13508;50.734;4.232;2024-01-07T03:02:52;4.40;99.90
25652;DHT22;13508;50.734;4.232;2024-01-07T03:05:56;4.30;99.90
25652;DHT22;13508;50.734;4.232;2024-01-07T03:08:59;4.40;99.90
25652;DHT22;13508;50.734;4.232;2024-01-07T03:12:05;4.20;99.90
25652;DHT22;13508;50.734;4.232;2024-01-07T03:15:11;4.10;99.90
25652;DHT22;13508;50.734;4.232;2024-01-07T03:18:14;4.00;99.90
25652;DHT22;13508;50.734;4.232;2024-01-07T03:21:18;4.00;99.90
25652;DHT22;13508;50.734;4.232;2024-01-07T03:24:24;3.90;99.90
25652;DHT22;13508;50.734;4.232;2024-01-07T03:27:27;4.10;99.90
25652;DHT22;13508;50.734;4.232;2024-01-07T03:30:33;4.10;99.90
25652;DHT22;13508;50.734;4.232;2024-01-07T03:33:40;4.10;99.90
25652;DHT22;13508;50.734;4.232;2024-01-07T03:36:46;4.10;99.90
25652;DHT22;13508;50.734;4.232;2024-01-07T03:39:49;4.00;99.90
25652;DHT22;13508;50.734;4.232;2024-01-07T03:42:55;3.90;99.90
25652;DHT22;13508;50.734;4.232;2024-01-07T03:45:59;4.00;99.90
25652;DHT22;13508;50.734;4.232;2024-01-07T03:49:02;4.00;99.90
25652;DHT22;13508;50.734;4.232;2024-01-07T03:52:06;4.00;99.90
25652;DHT22;13508;50.734;4.232;2024-01-07T03:55:09;4.00;99.90
25652;DHT22;13508;50.734;4.232;2024-01-07T03:58:13;4.00;99.90
25652;DHT22;13508;50.734;4.232;2024-01-07T04:01:17;4.10;99.90
25652;DHT22;13508;50.734;4.232;2024-01-07T04:04:21;4.10;99.90
25652;DHT22;13508;50.734;4.232;2024-01-07T04:07:24;4.00;99.90
25652;DHT22;13508;50.734;4.232;2024-01-07T04:10:28;4.00;99.90
25652;DHT22;13508;50.734;4.232;2024-01-07T04:13:31;3.90;99.90
25652;DHT22;13508;50.734;4.232;2024-01-07T04:16:35;3.80;99.90
25652;DHT22;13508;50.734;4.232;2024-01-07T04:19:38;4.00;99.90
25652;DHT22;13508;50.734;4.232;2024-01-07T04:22:41;3.90;99.90
25652;DHT22;13508;50.734;4.232;2024-01-07T04:25:50;3.80;99.90
25652;DHT22;13508;50.734;4.232;2024-01-07T04:28:53;3.70;99.90
25652;DHT22;13508;50.734;4.232;2024-01-07T04:31:56;3.70;99.90
25652;DHT22;13508;50.734;4.232;2024-01-07T04:35:00;3.90;99.90
25652;DHT22;13508;50.734;4.232;2024-01-07T04:38:03;3.90;99.90
25652;DHT22;13508;50.734;4.232;2024-01-07T04:41:06;4.00;99.90
25652;DHT22;13508;50.734;4.232;2024-01-07T04:44:10;4.00;99.90
25652;DHT22;13508;50.734;4.232;2024-01-07T04:47:27;4.00;99.90
25652;DHT22;13508;50.734;4.232;2024-01-07T04:50:31;3.90;99.90
25652;DHT22;13508;50.734;4.232;2024-01-07T04:53:34;4.10;99.90
25652;DHT22;13508;50.734;4.232;2024-01-07T04:56:37;4.00;99.90
25652;DHT22;13508;50.734;4.232;2024-01-07T04:59:40;4.00;99.90
25652;DHT22;13508;50.734;4.232;2024-01-07T05:02:46;4.00;99.90
25652;DHT22;13508;50.734;4.232;2024-01-07T05:05:49;4.10;99.90
25652;DHT22;13508;50.734;4.232;2024-01-07T05:08:53;4.20;99.90
25652;DHT22;13508;50.734;4.232;2024-01-07T05:11:56;4.00;99.90
25652;DHT22;13508;50.734;4.232;2024-01-07T05:14:59;3.90;99.90
25652;DHT22;13508;50.734;4.232;2024-01-07T05:18:07;3.90;99.90
25652;DHT22;13508;50.734;4.232;2024-01-07T05:21:11;3.70;99.90
25652;DHT22;13508;50.734;4.232;2024-01-07T05:24:14;3.80;99.90
25652;DHT22;13508;50.734;4.232;2024-01-07T05:27:18;3.90;99.90
25652;DHT22;13508;50.734;4.232;2024-01-07T05:30:21;4.10;99.90
25652;DHT22;13508;50.734;4.232;2024-01-07T05:33:25;4.00;99.90
25652;DHT22;13508;50.734;4.232;2024-01-07T05:36:28;3.90;99.90
25652;DHT22;13508;50.734;4.232;2024-01-07T05:39:32;3.90;99.90
25652;DHT22;13508;50.734;4.232;2024-01-07T05:42:35;3.80;99.90
25652;DHT22;13508;50.734;4.232;2024-01-07T05:45:39;3.70;99.90
25652;DHT22;13508;50.734;4.232;2024-01-07T05:48:45;3.60;99.90
25652;DHT22;13508;50.734;4.232;2024-01-07T05:51:49;3.60;99.90
25652;DHT22;13508;50.734;4.232;2024-01-07T05:54:53;3.60;99.90
25652;DHT22;13508;50.734;4.232;2024-01-07T05:57:56;3.70;99.90
25652;DHT22;13508;50.734;4.232;2024-01-07T06:01:02;3.50;99.90
25652;DHT22;13508;50.734;4.232;2024-01-07T06:04:10;3.50;99.90
25652;DHT22;13508;50.734;4.232;2024-01-07T06:07:13;3.60;99.90
25652;DHT22;13508;50.734;4.232;2024-01-07T06:10:19;3.80;99.90
25652;DHT22;13508;50.734;4.232;2024-01-07T06:13:22;3.90;99.90
25652;DHT22;13508;50.734;4.232;2024-01-07T06:16:26;3.70;99.90
25652;DHT22;13508;50.734;4.232;2024-01-07T06:19:30;3.60;99.90
25652;DHT22;13508;50.734;4.232;2024-01-07T06:22:33;3.60;99.90
25652;DHT22;13508;50.734;4.232;2024-01-07T06:25:36;3.50;99.90
25652;DHT22;13508;50.734;4.232;2024-01-07T06:28:39;3.70;99.90
25652;DHT22;13508;50.734;4.232;2024-01-07T06:31:43;3.70;99.90
25652;DHT22;13508;50.734;4.232;2024-01-07T06:34:51;3.60;99.90
25652;DHT22;13508;50.734;4.232;2024-01-07T06:37:55;3.70;99.90
25652;DHT22;13508;50.734;4.232;2024-01-07T06:40:58;3.70;99.90
25652;DHT22;13508;50.734;4.232;2024-01-07T06:44:07;3.70;99.90
25652;DHT22;13508;50.734;4.232;2024-01-07T06:47:10;3.70;99.90
25652;DHT22;13508;50.734;4.232;2024-01-07T06:50:14;3.70;99.90
25652;DHT22;13508;50.734;4.232;2024-01-07T06:53:17;3.60;99.90
25652;DHT22;13508;50.734;4.232;2024-01-07T06:56:23;3.70;99.90
25652;DHT22;13508;50.734;4.232;2024-01-07T06:59:28;3.60;99.90
25652;DHT22;13508;50.734;4.232;2024-01-07T07:02:31;3.60;99.90
25652;DHT22;13508;50.734;4.232;2024-01-07T07:05:35;3.60;99.90
25652;DHT22;13508;50.734;4.232;2024-01-07T07:08:39;3.60;99.90
25652;DHT22;13508;50.734;4.232;2024-01-07T07:11:43;3.70;99.90
25652;DHT22;13508;50.734;4.232;2024-01-07T07:14:46;3.80;99.90
25652;DHT22;13508;50.734;4.232;2024-01-07T07:17:50;3.80;99.90
25652;DHT22;13508;50.734;4.232;2024-01-07T07:20:54;3.80;99.90
25652;DHT22;13508;50.734;4.232;2024-01-07T07:23:56;3.80;99.90
25652;DHT22;13508;50.734;4.232;2024-01-07T07:27:00;3.70;99.90
25652;DHT22;13508;50.734;4.232;2024-01-07T07:30:04;3.60;99.90
25652;DHT22;13508;50.734;4.232;2024-01-07T07:33:07;3.60;99.90
25652;DHT22;13508;50.734;4.232;2024-01-07T07:36:11;3.60;99.90
25652;DHT22;13508;50.734;4.232;2024-01-07T07:39:14;3.60;99.90
25652;DHT22;13508;50.734;4.232;2024-01-07T07:42:18;3.50;99.90
25652;DHT22;13508;50.734;4.232;2024-01-07T07:45:21;3.40;99.90
25652;DHT22;13508;50.734;4.232;2024-01-07T07:48:25;3.40;99.90
25652;DHT22;13508;50.734;4.232;2024-01-07T07:51:29;3.50;99.90
25652;DHT22;13508;50.734;4.232;2024-01-07T07:54:33;3.50;99.90
25652;DHT22;13508;50.734;4.232;2024-01-07T07:57:38;3.50;99.90
25652;DHT22;13508;50.734;4.232;2024-01-07T08:00:41;3.50;99.90
25652;DHT22;13508;50.734;4.232;2024-01-07T08:03:47;3.40;99.90
25652;DHT22;13508;50.734;4.232;2024-01-07T08:06:51;3.50;99.90
25652;DHT22;13508;50.734;4.232;2024-01-07T08:09:54;3.60;99.90
25652;DHT22;13508;50.734;4.232;2024-01-07T08:13:00;3.50;99.90
25652;DHT22;13508;50.734;4.232;2024-01-07T08:16:06;3.50;99.90
25652;DHT22;13508;50.734;4.232;2024-01-07T08:19:09;3.50;99.90
25652;DHT22;13508;50.734;4.232;2024-01-07T08:22:13;3.60;99.90
25652;DHT22;13508;50.734;4.232;2024-01-07T08:25:19;3.70;99.90
25652;DHT22;13508;50.734;4.232;2024-01-07T08:28:23;3.70;99.90
25652;DHT22;13508;50.734;4.232;2024-01-07T08:31:26;3.60;99.90
25652;DHT22;13508;50.734;4.232;2024-01-07T08:34:30;3.80;99.90
25652;DHT22;13508;50.734;4.232;2024-01-07T08:37:33;3.80;99.90
25652;DHT22;13508;50.734;4.232;2024-01-07T08:40:37;3.70;99.90
25652;DHT22;13508;50.734;4.232;2024-01-07T08:43:40;3.70;99.90
25652;DHT22;13508;50.734;4.232;2024-01-07T08:46:44;3.50;99.90
25652;DHT22;13508;50.734;4.232;2024-01-07T08:49:48;3.50;99.90
25652;DHT22;13508;50.734;4.232;2024-01-07T08:52:51;3.60;99.90
25652;DHT22;13508;50.734;4.232;2024-01-07T08:55:55;3.60;99.90
25652;DHT22;13508;50.734;4.232;2024-01-07T08:58:58;3.60;99.90
25652;DHT22;13508;50.734;4.232;2024-01-07T09:02:02;3.60;99.90
25652;DHT22;13508;50.734;4.232;2024-01-07T09:05:06;3.50;99.90
25652;DHT22;13508;50.734;4.232;2024-01-07T09:08:09;3.50;99.90
25652;DHT22;13508;50.734;4.232;2024-01-07T09:11:19;3.70;99.90
25652;DHT22;13508;50.734;4.232;2024-01-07T09:14:22;3.70;99.90
25652;DHT22;13508;50.734;4.232;2024-01-07T09:17:26;3.60;99.90
25652;DHT22;13508;50.734;4.232;2024-01-07T09:20:29;3.60;99.90
25652;DHT22;13508;50.734;4.232;2024-01-07T09:23:33;3.60;99.90
25652;DHT22;13508;50.734;4.232;2024-01-07T09:26:41;3.60;99.90
25652;DHT22;13508;50.734;4.232;2024-01-07T09:29:45;3.40;99.90
25652;DHT22;13508;50.734;4.232;2024-01-07T09:32:48;3.30;99.90
25652;DHT22;13508;50.734;4.232;2024-01-07T09:35:52;3.20;99.90
25652;DHT22;13508;50.734;4.232;2024-01-07T09:38:56;3.20;99.90
25652;DHT22;13508;50.734;4.232;2024-01-07T09:42:00;3.20;99.90
25652;DHT22;13508;50.734;4.232;2024-01-07T09:45:04;3.20;99.90
25652;DHT22;13508;50.734;4.232;2024-01-07T09:48:10;3.10;99.90
25652;DHT22;13508;50.734;4.232;2024-01-07T09:51:16;3.00;99.90
25652;DHT22;13508;50.734;4.232;2024-01-07T09:54:24;3.10;99.90
25652;DHT22;13508;50.734;4.232;2024-01-07T09:57:27;3.30;99.90
25652;DHT22;13508;50.734;4.232;2024-01-07T10:00:31;3.40;99.90
25652;DHT22;13508;50.734;4.232;2024-01-07T10:03:35;3.50;99.90
25652;DHT22;13508;50.734;4.232;2024-01-07T10:06:39;3.50;99.90
25652;DHT22;13508;50.734;4.232;2024-01-07T10:09:43;3.40;99.90
25652;DHT22;13508;50.734;4.232;2024-01-07T10:12:47;3.40;99.90
25652;DHT22;13508;50.734;4.232;2024-01-07T10:15:50;3.50;99.90
25652;DHT22;13508;50.734;4.232;2024-01-07T10:18:54;3.70;99.90
25652;DHT22;13508;50.734;4.232;2024-01-07T10:22:03;3.50;99.90
25652;DHT22;13508;50.734;4.232;2024-01-07T10:25:06;3.50;99.90
25652;DHT22;13508;50.734;4.232;2024-01-07T10:28:09;3.60;99.90
25652;DHT22;13508;50.734;4.232;2024-01-07T10:31:13;3.60;99.90
25652;DHT22;13508;50.734;4.232;2024-01-07T10:34:17;3.80;99.90
25652;DHT22;13508;50.734;4.232;2024-01-07T10:37:22;3.90;99.90
25652;DHT22;13508;50.734;4.232;2024-01-07T10:40:27;3.90;99.90
25652;DHT22;13508;50.734;4.232;2024-01-07T10:43:30;3.80;99.90
25652;DHT22;13508;50.734;4.232;2024-01-07T10:46:34;3.80;99.90
25652;DHT22;13508;50.734;4.232;2024-01-07T10:49:40;3.70;99.90
25652;DHT22;13508;50.734;4.232;2024-01-07T10:52:57;3.50;99.90
25652;DHT22;13508;50.734;4.232;2024-01-07T10:56:03;3.50;99.90
25652;DHT22;13508;50.734;4.232;2024-01-07T10:59:10;3.40;99.90
25652;DHT22;13508;50.734;4.232;2024-01-07T11:02:14;3.40;99.90
25652;DHT22;13508;50.734;4.232;2024-01-07T11:05:27;3.20;99.90
25652;DHT22;13508;50.734;4.232;2024-01-07T11:08:45;3.20;99.90
25652;DHT22;13508;50.734;4.232;2024-01-07T11:11:50;3.20;99.90
25652;DHT22;13508;50.734;4.232;2024-01-07T11:14:53;3.30;99.90
25652;DHT22;13508;50.734;4.232;2024-01-07T11:17:57;3.40;99.90
25652;DHT22;13508;50.734;4.232;2024-01-07T11:21:01;3.40;99.90
25652;DHT22;13508;50.734;4.232;2024-01-07T11:24:05;3.40;99.90
25652;DHT22;13508;50.734;4.232;2024-01-07T11:27:09;3.50;99.90
25652;DHT22;13508;50.734;4.232;2024-01-07T11:30:19;3.50;99.90
25652;DHT22;13508;50.734;4.232;2024-01-07T11:33:32;3.40;99.90
25652;DHT22;13508;50.734;4.232;2024-01-07T11:36:36;3.30;99.90
25652;DHT22;13508;50.734;4.232;2024-01-07T11:39:45;3.40;99.90
25652;DHT22;13508;50.734;4.232;2024-01-07T11:42:49;3.40;99.90
25652;DHT22;13508;50.734;4.232;2024-01-07T11:45:55;3.40;99.90
25652;DHT22;13508;50.734;4.232;2024-01-07T11:48:59;3.60;99.90
25652;DHT22;13508;50.734;4.232;2024-01-07T11:52:04;3.60;99.90
25652;DHT22;13508;50.734;4.232;2024-01-07T11:55:10;3.50;99.90
25652;DHT22;13508;50.734;4.232;2024-01-07T11:58:13;3.50;99.90
25652;DHT22;13508;50.734;4.232;2024-01-07T12:01:19;3.60;99.90
25652;DHT22;13508;50.734;4.232;2024-01-07T12:04:22;3.60;99.90
25652;DHT22;13508;50.734;4.232;2024-01-07T12:07:26;3.70;99.90
25652;DHT22;13508;50.734;4.232;2024-01-07T12:10:29;3.70;99.90
25652;DHT22;13508;50.734;4.232;2024-01-07T12:13:36;3.70;99.90
25652;DHT22;13508;50.734;4.232;2024-01-07T12:16:39;3.80;99.90
25652;DHT22;13508;50.734;4.232;2024-01-07T12:19:43;3.80;99.90
25652;DHT22;13508;50.734;4.232;2024-01-07T12:22:47;3.80;99.90
25652;DHT22;13508;50.734;4.232;2024-01-07T12:25:50;3.80;99.90
25652;DHT22;13508;50.734;4.232;2024-01-07T12:28:55;3.60;99.90
25652;DHT22;13508;50.734;4.232;2024-01-07T12:32:00;3.60;99.90
25652;DHT22;13508;50.734;4.232;2024-01-07T12:35:06;3.70;99.90
25652;DHT22;13508;50.734;4.232;2024-01-07T12:38:11;3.60;99.90
25652;DHT22;13508;50.734;4.232;2024-01-07T12:41:15;3.50;99.90
25652;DHT22;13508;50.734;4.232;2024-01-07T12:44:18;3.30;99.90
25652;DHT22;13508;50.734;4.232;2024-01-07T12:47:22;3.30;99.90
25652;DHT22;13508;50.734;4.232;2024-01-07T12:50:28;3.20;99.90
25652;DHT22;13508;50.734;4.232;2024-01-07T12:53:35;3.30;99.90
25652;DHT22;13508;50.734;4.232;2024-01-07T12:56:39;3.30;99.90
25652;DHT22;13508;50.734;4.232;2024-01-07T12:59:42;3.40;99.90
25652;DHT22;13508;50.734;4.232;2024-01-07T13:02:47;3.50;99.90
25652;DHT22;13508;50.734;4.232;2024-01-07T13:05:52;3.50;99.90
25652;DHT22;13508;50.734;4.232;2024-01-07T13:08:55;3.60;99.90
25652;DHT22;13508;50.734;4.232;2024-01-07T13:12:01;3.50;99.90
25652;DHT22;13508;50.734;4.232;2024-01-07T13:15:04;3.50;99.90
25652;DHT22;13508;50.734;4.232;2024-01-07T13:18:08;3.50;99.90
25652;DHT22;13508;50.734;4.232;2024-01-07T13:21:11;3.40;99.90
25652;DHT22;13508;50.734;4.232;2024-01-07T13:24:15;3.30;99.90
25652;DHT22;13508;50.734;4.232;2024-01-07T13:27:18;3.40;99.90
25652;DHT22;13508;50.734;4.232;2024-01-07T13:30:21;3.60;99.90
25652;DHT22;13508;50.734;4.232;2024-01-07T13:33:25;3.50;99.90
25652;DHT22;13508;50.734;4.232;2024-01-07T13:36:28;3.50;99.90
25652;DHT22;13508;50.734;4.232;2024-01-07T13:39:32;3.50;99.90
25652;DHT22;13508;50.734;4.232;2024-01-07T13:42:35;3.70;99.90
25652;DHT22;13508;50.734;4.232;2024-01-07T13:45:39;3.70;99.90
25652;DHT22;13508;50.734;4.232;2024-01-07T13:48:41;3.60;99.90
25652;DHT22;13508;50.734;4.232;2024-01-07T13:51:47;3.70;99.90
25652;DHT22;13508;50.734;4.232;2024-01-07T13:54:50;3.50;99.90
25652;DHT22;13508;50.734;4.232;2024-01-07T13:57:54;3.40;99.90
25652;DHT22;13508;50.734;4.232;2024-01-07T14:01:00;3.30;99.90
25652;DHT22;13508;50.734;4.232;2024-01-07T14:04:04;3.40;99.90
25652;DHT22;13508;50.734;4.232;2024-01-07T14:07:07;3.30;99.90
25652;DHT22;13508;50.734;4.232;2024-01-07T14:10:10;3.20;99.90
25652;DHT22;13508;50.734;4.232;2024-01-07T14:13:14;3.20;99.90
25652;DHT22;13508;50.734;4.232;2024-01-07T14:16:17;3.20;99.90
25652;DHT22;13508;50.734;4.232;2024-01-07T14:19:21;3.20;99.90
25652;DHT22;13508;50.734;4.232;2024-01-07T14:22:25;3.10;99.90
25652;DHT22;13508;50.734;4.232;2024-01-07T14:25:28;3.20;99.90
25652;DHT22;13508;50.734;4.232;2024-01-07T14:28:32;3.20;99.90
25652;DHT22;13508;50.734;4.232;2024-01-07T14:31:38;3.10;99.90
25652;DHT22;13508;50.734;4.232;2024-01-07T14:34:41;3.20;99.90
25652;DHT22;13508;50.734;4.232;2024-01-07T14:37:45;3.10;99.90
25652;DHT22;13508;50.734;4.232;2024-01-07T14:40:48;3.10;99.90
25652;DHT22;13508;50.734;4.232;2024-01-07T14:43:54;3.00;99.90
25652;DHT22;13508;50.734;4.232;2024-01-07T14:46:58;3.00;99.90
25652;DHT22;13508;50.734;4.232;2024-01-07T14:50:02;3.10;99.90
25652;DHT22;13508;50.734;4.232;2024-01-07T14:53:05;3.10;99.90
25652;DHT22;13508;50.734;4.232;2024-01-07T14:56:09;3.10;99.90
25652;DHT22;13508;50.734;4.232;2024-01-07T14:59:12;3.20;99.90
25652;DHT22;13508;50.734;4.232;2024-01-07T15:02:18;3.20;99.90
25652;DHT22;13508;50.734;4.232;2024-01-07T15:05:21;3.10;99.90
25652;DHT22;13508;50.734;4.232;2024-01-07T15:08:25;3.00;99.90
25652;DHT22;13508;50.734;4.232;2024-01-07T15:11:28;3.00;99.90
25652;DHT22;13508;50.734;4.232;2024-01-07T15:14:32;3.10;99.90
25652;DHT22;13508;50.734;4.232;2024-01-07T15:17:35;3.00;99.90
25652;DHT22;13508;50.734;4.232;2024-01-07T15:20:39;3.00;99.90
25652;DHT22;13508;50.734;4.232;2024-01-07T15:23:42;3.00;99.90
25652;DHT22;13508;50.734;4.232;2024-01-07T15:26:46;3.10;99.90
25652;DHT22;13508;50.734;4.232;2024-01-07T15:29:49;3.10;99.90
25652;DHT22;13508;50.734;4.232;2024-01-07T15:32:53;3.00;99.90
25652;DHT22;13508;50.734;4.232;2024-01-07T15:35:57;3.10;99.90
25652;DHT22;13508;50.734;4.232;2024-01-07T15:39:01;3.00;99.90
25652;DHT22;13508;50.734;4.232;2024-01-07T15:42:05;3.00;99.90
25652;DHT22;13508;50.734;4.232;2024-01-07T15:45:09;3.00;99.90
25652;DHT22;13508;50.734;4.232;2024-01-07T15:48:12;3.00;99.90
25652;DHT22;13508;50.734;4.232;2024-01-07T15:51:17;3.00;99.90
25652;DHT22;13508;50.734;4.232;2024-01-07T15:54:21;2.90;99.90
25652;DHT22;13508;50.734;4.232;2024-01-07T15:57:24;3.00;99.90
25652;DHT22;13508;50.734;4.232;2024-01-07T16:00:28;3.10;99.90
25652;DHT22;13508;50.734;4.232;2024-01-07T16:03:32;2.90;99.90
25652;DHT22;13508;50.734;4.232;2024-01-07T16:06:35;2.70;99.90
25652;DHT22;13508;50.734;4.232;2024-01-07T16:09:40;2.70;99.90
25652;DHT22;13508;50.734;4.232;2024-01-07T16:12:43;2.80;99.90
25652;DHT22;13508;50.734;4.232;2024-01-07T16:15:47;2.90;99.90
25652;DHT22;13508;50.734;4.232;2024-01-07T16:18:50;2.90;99.90
25652;DHT22;13508;50.734;4.232;2024-01-07T16:21:54;2.70;99.90
25652;DHT22;13508;50.734;4.232;2024-01-07T16:24:57;2.80;99.90
25652;DHT22;13508;50.734;4.232;2024-01-07T16:28:01;2.70;99.90
25652;DHT22;13508;50.734;4.232;2024-01-07T16:31:04;2.60;99.90
25652;DHT22;13508;50.734;4.232;2024-01-07T16:34:08;2.50;99.90
25652;DHT22;13508;50.734;4.232;2024-01-07T16:37:12;2.40;99.90
25652;DHT22;13508;50.734;4.232;2024-01-07T16:40:15;2.40;99.90
25652;DHT22;13508;50.734;4.232;2024-01-07T16:43:21;2.40;99.90
25652;DHT22;13508;50.734;4.232;2024-01-07T16:46:24;2.40;99.90
25652;DHT22;13508;50.734;4.232;2024-01-07T16:49:28;2.30;99.90
25652;DHT22;13508;50.734;4.232;2024-01-07T16:52:33;2.40;99.90
25652;DHT22;13508;50.734;4.232;2024-01-07T16:55:36;2.50;99.90
25652;DHT22;13508;50.734;4.232;2024-01-07T16:58:40;2.60;99.90
25652;DHT22;13508;50.734;4.232;2024-01-07T17:01:43;2.60;99.90
25652;DHT22;13508;50.734;4.232;2024-01-07T17:04:47;2.50;99.90
25652;DHT22;13508;50.734;4.232;2024-01-07T17:07:50;2.40;99.90
25652;DHT22;13508;50.734;4.232;2024-01-07T17:10:54;2.40;99.90
25652;DHT22;13508;50.734;4.232;2024-01-07T17:13:57;2.40;99.90
25652;DHT22;13508;50.734;4.232;2024-01-07T17:17:01;2.20;99.90
25652;DHT22;13508;50.734;4.232;2024-01-07T17:20:08;2.10;99.90
25652;DHT22;13508;50.734;4.232;2024-01-07T17:23:16;2.00;99.90
25652;DHT22;13508;50.734;4.232;2024-01-07T17:26:24;2.00;99.90
25652;DHT22;13508;50.734;4.232;2024-01-07T17:29:27;2.00;99.90
25652;DHT22;13508;50.734;4.232;2024-01-07T17:32:31;1.90;99.90
25652;DHT22;13508;50.734;4.232;2024-01-07T17:35:37;2.00;99.90
25652;DHT22;13508;50.734;4.232;2024-01-07T17:38:42;2.00;99.90
25652;DHT22;13508;50.734;4.232;2024-01-07T17:41:45;1.90;99.90
25652;DHT22;13508;50.734;4.232;2024-01-07T17:44:49;1.80;99.90
25652;DHT22;13508;50.734;4.232;2024-01-07T17:47:55;1.90;99.90
25652;DHT22;13508;50.734;4.232;2024-01-07T17:51:01;2.00;99.90
25652;DHT22;13508;50.734;4.232;2024-01-07T17:54:07;2.00;99.90
25652;DHT22;13508;50.734;4.232;2024-01-07T17:57:10;2.00;99.90
25652;DHT22;13508;50.734;4.232;2024-01-07T18:00:14;2.00;99.90
25652;DHT22;13508;50.734;4.232;2024-01-07T18:03:18;2.00;99.90
25652;DHT22;13508;50.734;4.232;2024-01-07T18:06:23;2.00;99.90
25652;DHT22;13508;50.734;4.232;2024-01-07T18:09:31;2.00;99.90
25652;DHT22;13508;50.734;4.232;2024-01-07T18:12:34;1.90;99.90
25652;DHT22;13508;50.734;4.232;2024-01-07T18:15:38;1.90;99.90
25652;DHT22;13508;50.734;4.232;2024-01-07T18:18:43;1.70;99.90
25652;DHT22;13508;50.734;4.232;2024-01-07T18:21:49;1.50;99.90
25652;DHT22;13508;50.734;4.232;2024-01-07T18:24:53;1.60;99.90
25652;DHT22;13508;50.734;4.232;2024-01-07T18:27:56;1.60;99.90
25652;DHT22;13508;50.734;4.232;2024-01-07T18:31:02;1.70;99.90
25652;DHT22;13508;50.734;4.232;2024-01-07T18:34:05;1.80;99.90
25652;DHT22;13508;50.734;4.232;2024-01-07T18:37:09;1.60;99.90
25652;DHT22;13508;50.734;4.232;2024-01-07T18:40:13;1.50;99.90
25652;DHT22;13508;50.734;4.232;2024-01-07T18:43:16;1.40;99.90
25652;DHT22;13508;50.734;4.232;2024-01-07T18:46:20;1.40;99.90
25652;DHT22;13508;50.734;4.232;2024-01-07T18:49:23;1.40;99.90
25652;DHT22;13508;50.734;4.232;2024-01-07T18:52:27;1.40;99.90
25652;DHT22;13508;50.734;4.232;2024-01-07T18:55:30;1.40;99.90
25652;DHT22;13508;50.734;4.232;2024-01-07T18:58:34;1.40;99.90
25652;DHT22;13508;50.734;4.232;2024-01-07T19:01:39;1.30;99.90
25652;DHT22;13508;50.734;4.232;2024-01-07T19:04:43;1.30;99.90
25652;DHT22;13508;50.734;4.232;2024-01-07T19:07:46;1.30;99.90
25652;DHT22;13508;50.734;4.232;2024-01-07T19:10:49;1.20;99.90
25652;DHT22;13508;50.734;4.232;2024-01-07T19:13:53;1.20;99.90
25652;DHT22;13508;50.734;4.232;2024-01-07T19:16:56;1.20;99.90
25652;DHT22;13508;50.734;4.232;2024-01-07T19:20:27;1.10;99.90
25652;DHT22;13508;50.734;4.232;2024-01-07T19:23:54;1.10;99.90
25652;DHT22;13508;50.734;4.232;2024-01-07T19:26:59;1.10;99.90
25652;DHT22;13508;50.734;4.232;2024-01-07T19:30:04;1.10;99.90
25652;DHT22;13508;50.734;4.232;2024-01-07T19:33:07;1.20;99.90
25652;DHT22;13508;50.734;4.232;2024-01-07T19:36:11;1.30;99.90
25652;DHT22;13508;50.734;4.232;2024-01-07T19:39:15;1.20;99.90
25652;DHT22;13508;50.734;4.232;2024-01-07T19:42:19;1.10;99.90